Time;durP1;ratioP1;P1;durP2;ratioP2;P2;SDS_P1;SDS_P2;PMS_P1;PMS_P2;Temp;Humidity;BMP_temperature;BMP_pressure;BME280_temperature;BME280_humidity;BME280_pressure;Samples;Min_cycle;Max_cycle;Signal;HPM_P1;HPM_P2
2023/08/06 00:00:51;;;;;;;0.20;0.20;;;;;;;;;;4966798;28;20072;-85
2023/08/06 00:03:17;;;;;;;0.22;0.17;;;;;;;;;;4968231;28;20041;-83
2023/08/06 00:05:46;;;;;;;0.20;0.10;;;;;;;;;;4977361;28;20038;-85
2023/08/06 00:08:12;;;;;;;0.20;0.10;;;;;;;;;;4966012;28;20038;-84
2023/08/06 00:10:40;;;;;;;1.10;0.30;;;;;;;;;;4967739;28;20121;-83
2023/08/06 00:13:06;;;;;;;0.30;0.30;;;;;;;;;;4969199;28;20045;-84
2023/08/06 00:15:32;;;;;;;0.20;0.20;;;;;;;;;;4978357;28;20068;-82
2023/08/06 00:17:58;;;;;;;0.20;0.10;;;;;;;;;;4979164;28;20671;-82
2023/08/06 00:20:24;;;;;;;0.20;0.10;;;;;;;;;;4966010;28;20052;-85
2023/08/06 00:22:50;;;;;;;0.20;0.10;;;;;;;;;;4978651;28;20644;-83
2023/08/06 00:25:16;;;;;;;0.20;0.10;;;;;;;;;;4968907;28;20998;-81
2023/08/06 00:27:42;;;;;;;0.30;0.20;;;;;;;;;;4966813;28;20517;-83
2023/08/06 00:30:08;;;;;;;0.32;0.10;;;;;;;;;;4979165;28;20038;-85
2023/08/06 00:32:34;;;;;;;0.20;0.10;;;;;;;;;;4975806;28;20042;-84
2023/08/06 00:35:00;;;;;;;0.20;0.17;;;;;;;;;;4962618;28;20042;-85
2023/08/06 00:37:29;;;;;;;0.20;0.10;;;;;;;;;;4973462;28;20114;-84
2023/08/06 00:39:55;;;;;;;0.20;0.10;;;;;;;;;;4956103;28;20125;-87
2023/08/06 00:42:22;;;;;;;0.20;0.10;;;;;;;;;;4972368;28;20056;-84
2023/08/06 00:44:48;;;;;;;0.28;0.17;;;;;;;;;;4959157;28;20555;-83
2023/08/06 00:47:14;;;;;;;0.20;0.10;;;;;;;;;;4957356;28;20095;-83
2023/08/06 00:49:40;;;;;;;0.20;0.10;;;;;;;;;;4959158;28;20407;-85
2023/08/06 00:52:07;;;;;;;0.20;0.10;;;;;;;;;;4964734;28;20048;-84
2023/08/06 00:54:35;;;;;;;0.20;0.20;;;;;;;;;;4968188;28;20523;-84
2023/08/06 00:57:02;;;;;;;0.20;0.10;;;;;;;;;;4981875;28;20554;-85
2023/08/06 00:59:28;;;;;;;0.45;0.35;;;;;;;;;;4973184;28;20107;-83
2023/08/06 01:01:54;;;;;;;0.20;0.20;;;;;;;;;;4964365;28;20049;-83
2023/08/06 01:04:20;;;;;;;0.20;0.03;;;;;;;;;;4977925;28;20042;-85
2023/08/06 01:06:46;;;;;;;0.20;0.08;;;;;;;;;;4961380;28;20487;-82
2023/08/06 01:09:30;;;;;;;0.38;0.20;;;;;;;;;;4976658;28;20053;-83
2023/08/06 01:12:09;;;;;;;0.22;0.20;;;;;;;;;;4981510;28;20406;-84
2023/08/06 01:14:54;;;;;;;0.20;0.10;;;;;;;;;;4970685;28;20042;-83
2023/08/06 01:17:20;;;;;;;0.20;0.05;;;;;;;;;;4977114;28;20406;-83
2023/08/06 01:19:46;;;;;;;0.20;0.17;;;;;;;;;;4963827;28;20056;-84
2023/08/06 01:22:12;;;;;;;0.20;0.10;;;;;;;;;;4965980;28;20042;-84
2023/08/06 01:24:38;;;;;;;0.25;0.20;;;;;;;;;;4969406;28;20049;-83
2023/08/06 01:27:08;;;;;;;0.20;0.10;;;;;;;;;;4960602;28;20407;-83
2023/08/06 01:29:34;;;;;;;0.63;0.40;;;;;;;;;;4962182;28;20105;-87
2023/08/06 01:32:01;;;;;;;0.20;0.10;;;;;;;;;;4978745;28;20507;-85
2023/08/06 01:34:29;;;;;;;0.20;0.10;;;;;;;;;;4976746;28;20086;-83
2023/08/06 01:36:55;;;;;;;0.73;0.50;;;;;;;;;;4961504;28;20077;-84
2023/08/06 01:39:21;;;;;;;0.20;0.10;;;;;;;;;;4965861;28;20050;-86
2023/08/06 01:41:48;;;;;;;0.20;0.00;;;;;;;;;;4969642;28;20087;-84
2023/08/06 01:44:14;;;;;;;0.25;0.20;;;;;;;;;;4975818;28;20039;-83
2023/08/06 01:46:40;;;;;;;0.20;0.00;;;;;;;;;;4958809;28;20485;-84
2023/08/06 01:49:06;;;;;;;0.28;0.17;;;;;;;;;;4965967;28;20523;-85
2023/08/06 01:51:32;;;;;;;0.30;0.30;;;;;;;;;;4971851;28;20062;-83
2023/08/06 01:53:58;;;;;;;0.20;0.00;;;;;;;;;;4964552;28;20125;-83
2023/08/06 01:56:24;;;;;;;0.20;0.08;;;;;;;;;;4975282;28;20465;-83
2023/08/06 01:58:50;;;;;;;0.20;0.15;;;;;;;;;;4972601;28;20046;-82
2023/08/06 02:01:16;;;;;;;0.20;0.10;;;;;;;;;;4962888;28;20045;-84
2023/08/06 02:03:42;;;;;;;0.20;0.10;;;;;;;;;;4955241;28;20046;-85
2023/08/06 02:06:08;;;;;;;0.20;0.13;;;;;;;;;;4965053;28;20479;-86
2023/08/06 02:08:34;;;;;;;0.20;0.10;;;;;;;;;;4974653;28;20031;-83
2023/08/06 02:11:01;;;;;;;0.20;0.10;;;;;;;;;;4968162;28;20971;-83
2023/08/06 02:13:27;;;;;;;0.20;0.10;;;;;;;;;;4972455;28;20455;-83
2023/08/06 02:15:54;;;;;;;0.20;0.05;;;;;;;;;;4962731;28;20093;-85
2023/08/06 02:18:20;;;;;;;0.20;0.10;;;;;;;;;;4972409;28;20342;-83
2023/08/06 02:20:56;;;;;;;0.20;0.10;;;;;;;;;;4973635;28;20120;-83
2023/08/06 02:23:22;;;;;;;0.20;0.10;;;;;;;;;;4961417;28;20046;-82
2023/08/06 02:25:48;;;;;;;0.20;0.00;;;;;;;;;;4957412;28;20133;-83
2023/08/06 02:28:14;;;;;;;0.20;0.00;;;;;;;;;;4955267;28;20124;-82
2023/08/06 02:30:40;;;;;;;0.20;0.10;;;;;;;;;;4965873;28;20038;-84
2023/08/06 02:33:06;;;;;;;0.30;0.25;;;;;;;;;;4970812;28;20046;-82
2023/08/06 02:35:32;;;;;;;0.73;0.50;;;;;;;;;;4995105;23;20044;-85
2023/08/06 02:37:58;;;;;;;0.20;0.10;;;;;;;;;;4964356;28;20511;-87
2023/08/06 02:40:24;;;;;;;0.28;0.20;;;;;;;;;;4989824;28;20042;-87
2023/08/06 02:42:55;;;;;;;0.20;0.10;;;;;;;;;;4973829;28;20042;-88
2023/08/06 02:45:27;;;;;;;0.20;0.10;;;;;;;;;;4983569;28;20419;-86
2023/08/06 02:47:54;;;;;;;0.28;0.28;;;;;;;;;;4966780;28;20632;-89
2023/08/06 02:50:22;;;;;;;0.20;0.10;;;;;;;;;;4959572;28;20038;-85
2023/08/06 02:52:49;;;;;;;0.20;0.10;;;;;;;;;;4965785;28;20640;-84
2023/08/06 02:55:15;;;;;;;0.20;0.10;;;;;;;;;;4964323;28;20035;-85
2023/08/06 02:57:41;;;;;;;0.35;0.20;;;;;;;;;;4959657;28;20043;-86
2023/08/06 03:00:08;;;;;;;0.22;0.10;;;;;;;;;;4965004;28;20048;-89
2023/08/06 03:02:35;;;;;;;0.20;0.10;;;;;;;;;;4969555;28;20048;-87
2023/08/06 03:05:01;;;;;;;0.43;0.10;;;;;;;;;;4970572;28;20043;-87
2023/08/06 03:07:30;;;;;;;0.20;0.17;;;;;;;;;;4966245;28;20049;-87
2023/08/06 03:09:56;;;;;;;0.20;0.15;;;;;;;;;;4966369;28;20038;-88
2023/08/06 03:12:25;;;;;;;0.20;0.10;;;;;;;;;;4966475;28;20047;-88
2023/08/06 03:14:57;;;;;;;0.20;0.20;;;;;;;;;;4964272;28;20042;-87
2023/08/06 03:17:23;;;;;;;0.40;0.40;;;;;;;;;;4962464;28;20073;-87
2023/08/06 03:19:52;;;;;;;0.20;0.10;;;;;;;;;;4954704;28;20050;-88
2023/08/06 03:22:18;;;;;;;0.25;0.20;;;;;;;;;;4968545;28;20211;-85
2023/08/06 03:24:44;;;;;;;0.20;0.03;;;;;;;;;;4963768;28;20980;-86
2023/08/06 03:27:13;;;;;;;0.20;0.10;;;;;;;;;;4969600;28;20411;-86
2023/08/06 03:29:39;;;;;;;0.30;0.20;;;;;;;;;;4966005;28;20460;-86
2023/08/06 03:32:12;;;;;;;0.20;0.10;;;;;;;;;;4968918;28;20132;-89
2023/08/06 03:34:38;;;;;;;0.30;0.20;;;;;;;;;;4972251;28;20962;-86
2023/08/06 03:37:05;;;;;;;0.20;0.10;;;;;;;;;;4966273;28;20056;-85
2023/08/06 03:39:43;;;;;;;;;;;;;;;;;;;;;
2023/08/06 03:42:12;;;;;;;0.20;0.10;;;;;;;;;;4965771;28;20126;-88
2023/08/06 03:44:47;;;;;;;0.20;0.10;;;;;;;;;;4961959;28;20411;-87
2023/08/06 03:47:16;;;;;;;0.50;0.30;;;;;;;;;;4965650;28;20113;-89
2023/08/06 03:49:49;;;;;;;0.20;0.10;;;;;;;;;;4965743;28;20329;-87
2023/08/06 03:52:40;;;;;;;0.20;0.00;;;;;;;;;;4961789;28;20057;-88
2023/08/06 03:55:12;;;;;;;0.45;0.22;;;;;;;;;;4966108;28;20034;-87
2023/08/06 03:57:46;;;;;;;0.20;0.20;;;;;;;;;;4966680;28;20533;-87
2023/08/06 04:00:12;;;;;;;0.28;0.22;;;;;;;;;;4967960;28;20046;-90
2023/08/06 04:02:50;;;;;;;0.40;0.30;;;;;;;;;;4964677;28;20043;-90
2023/08/06 04:07:51;;;;;;;0.20;0.10;;;;;;;;;;4958011;28;20403;-88
2023/08/06 04:14:12;;;;;;;0.20;0.10;;;;;;;;;;4966511;28;20069;-88
2023/08/06 04:16:54;;;;;;;0.20;0.10;;;;;;;;;;4918828;29;20054;-92
2023/08/06 04:19:36;;;;;;;0.20;0.10;;;;;;;;;;4927992;29;20047;-89
2023/08/06 04:22:05;;;;;;;;;;;;;;;;;;4933674;28;21853;-91
2023/08/06 04:24:31;;;;;;;0.20;0.00;;;;;;;;;;4927735;28;19918;-89
2023/08/06 04:26:57;;;;;;;0.20;0.15;;;;;;;;;;4933113;28;20051;-87
2023/08/06 04:29:26;;;;;;;0.20;0.00;;;;;;;;;;4931467;29;20078;-88
2023/08/06 04:31:57;;;;;;;0.40;0.40;;;;;;;;;;4936906;29;20058;-87
2023/08/06 04:37:46;;;;;;;0.30;0.17;;;;;;;;;;4948966;28;20039;-88
2023/08/06 04:40:20;;;;;;;0.20;0.10;;;;;;;;;;4935764;28;20159;-89
2023/08/06 04:43:01;;;;;;;0.20;0.00;;;;;;;;;;4933277;28;20207;-87
2023/08/06 04:45:56;;;;;;;0.20;0.10;;;;;;;;;;4933090;28;20047;-88
2023/08/06 04:51:43;;;;;;;0.20;0.10;;;;;;;;;;4927188;28;20728;-89
2023/08/06 04:54:29;;;;;;;0.20;0.10;;;;;;;;;;4929141;28;20098;-87
2023/08/06 04:57:15;;;;;;;0.20;0.03;;;;;;;;;;4924033;28;20044;-86
2023/08/06 04:59:42;;;;;;;0.20;0.10;;;;;;;;;;4930975;28;20134;-87
2023/08/06 05:02:15;;;;;;;0.20;0.13;;;;;;;;;;4928041;28;20118;-87
2023/08/06 05:04:41;;;;;;;1.40;0.20;;;;;;;;;;4925090;28;20405;-89
2023/08/06 05:07:10;;;;;;;0.22;0.22;;;;;;;;;;4924190;28;20059;-88
2023/08/06 05:10:03;;;;;;;;;;;;;;;;;;;;;
2023/08/06 05:13:30;;;;;;;;;;;;;;;;;;;;;
2023/08/06 05:15:45;;;;;;;0.90;0.20;;;;;;;;;;4916974;28;20409;-90
2023/08/06 05:18:37;;;;;;;0.20;0.10;;;;;;;;;;4924349;28;20043;-88
2023/08/06 05:21:24;;;;;;;0.28;0.17;;;;;;;;;;4940705;28;20047;-90
2023/08/06 05:24:34;;;;;;;0.20;0.10;;;;;;;;;;4919647;29;20078;-87
2023/08/06 05:27:18;;;;;;;;;;;;;;;;;;;;;
2023/08/06 05:30:03;;;;;;;0.20;0.10;;;;;;;;;;4942952;28;20054;-85
2023/08/06 05:32:29;;;;;;;0.20;0.20;;;;;;;;;;4927904;28;20054;-86
2023/08/06 05:35:04;;;;;;;0.50;0.20;;;;;;;;;;4922136;28;20054;-88
2023/08/06 05:37:36;;;;;;;0.20;0.00;;;;;;;;;;4919074;28;20039;-86
2023/08/06 05:40:11;;;;;;;0.20;0.10;;;;;;;;;;4921934;28;20715;-86
2023/08/06 05:42:48;;;;;;;;;;;;;;;;;;4906474;28;20424;-86
2023/08/06 05:48:44;;;;;;;0.20;0.20;;;;;;;;;;4929267;29;20101;-86
2023/08/06 05:51:16;;;;;;;0.20;0.20;;;;;;;;;;4925937;28;20042;-85
2023/08/06 05:54:05;;;;;;;0.40;0.22;;;;;;;;;;4930849;29;20043;-87
2023/08/06 05:57:12;;;;;;;;;;;;;;;;;;;;;
2023/08/06 06:00:06;;;;;;;0.20;0.13;;;;;;;;;;4948320;28;20047;-86
2023/08/06 06:06:12;;;;;;;0.20;0.10;;;;;;;;;;4924907;29;20091;-89
2023/08/06 06:09:07;;;;;;;0.68;0.30;;;;;;;;;;4933516;28;20066;-86
2023/08/06 06:12:04;;;;;;;0.20;0.10;;;;;;;;;;4880244;29;20045;-84
2023/08/06 06:15:01;;;;;;;0.20;0.10;;;;;;;;;;4913794;29;20047;-87
2023/08/06 06:20:53;;;;;;;0.20;0.10;;;;;;;;;;4925795;28;20055;-86
2023/08/06 06:26:58;;;;;;;0.20;0.10;;;;;;;;;;4891766;29;20083;-87
2023/08/06 06:29:27;;;;;;;0.20;0.03;;;;;;;;;;4856754;29;20092;-86
2023/08/06 06:31:56;;;;;;;0.20;0.15;;;;;;;;;;4838689;29;20041;-85
2023/08/06 06:37:31;;;;;;;0.50;0.30;;;;;;;;;;4917771;28;20149;-87
2023/08/06 06:40:37;;;;;;;0.30;0.25;;;;;;;;;;4942436;28;20435;-85
2023/08/06 06:43:03;;;;;;;0.30;0.20;;;;;;;;;;4908625;28;20619;-85
2023/08/06 06:45:29;;;;;;;0.20;0.00;;;;;;;;;;4915557;28;20611;-85
2023/08/06 06:48:12;;;;;;;0.20;0.10;;;;;;;;;;4926530;28;22191;-85
2023/08/06 06:50:39;;;;;;;;;;;;;;;;;;4927275;28;20456;-86
2023/08/06 06:53:05;;;;;;;0.75;0.30;;;;;;;;;;4926729;28;19940;-85
2023/08/06 06:55:49;;;;;;;0.57;0.52;;;;;;;;;;4929016;28;20036;-84
2023/08/06 06:58:32;;;;;;;0.30;0.30;;;;;;;;;;4929823;28;20043;-85
2023/08/06 07:01:31;;;;;;;0.20;0.10;;;;;;;;;;4931026;28;20401;-85
2023/08/06 07:04:04;;;;;;;1.02;0.43;;;;;;;;;;4909834;28;20207;-86
2023/08/06 07:06:42;;;;;;;0.20;0.10;;;;;;;;;;4927104;28;20051;-84
2023/08/06 07:09:25;;;;;;;0.35;0.30;;;;;;;;;;4925585;28;20074;-85
2023/08/06 07:12:24;;;;;;;0.40;0.38;;;;;;;;;;4886302;28;20088;-84
2023/08/06 07:14:59;;;;;;;0.30;0.30;;;;;;;;;;4926973;28;20054;-85
2023/08/06 07:17:34;;;;;;;0.20;0.10;;;;;;;;;;4944114;28;20571;-83
2023/08/06 07:20:18;;;;;;;0.20;0.10;;;;;;;;;;4928816;29;20051;-84
2023/08/06 07:22:47;;;;;;;0.20;0.10;;;;;;;;;;4925340;28;20138;-84
2023/08/06 07:25:17;;;;;;;0.20;0.20;;;;;;;;;;4928175;28;21327;-84
2023/08/06 07:28:05;;;;;;;0.35;0.20;;;;;;;;;;4928368;28;20074;-84
2023/08/06 07:30:34;;;;;;;0.20;0.10;;;;;;;;;;4930901;28;20039;-83
2023/08/06 07:33:12;;;;;;;0.30;0.20;;;;;;;;;;4926252;28;20035;-84
2023/08/06 07:39:51;;;;;;;0.20;0.10;;;;;;;;;;4886605;29;20553;-87
2023/08/06 07:42:23;;;;;;;0.20;0.00;;;;;;;;;;4867207;29;20052;-87
2023/08/06 07:51:39;;;;;;;0.20;0.15;;;;;;;;;;4902213;29;20067;-88
2023/08/06 07:54:29;;;;;;;0.20;0.10;;;;;;;;;;4890139;29;20036;-87
2023/08/06 08:03:38;;;;;;;0.30;0.25;;;;;;;;;;4922082;29;20038;-85
2023/08/06 08:06:17;;;;;;;0.20;0.10;;;;;;;;;;4927634;28;20082;-88
2023/08/06 08:09:13;;;;;;;0.20;0.10;;;;;;;;;;4931175;29;20049;-87
2023/08/06 08:15:01;;;;;;;0.20;0.20;;;;;;;;;;4883768;29;20123;-87
2023/08/06 08:17:38;;;;;;;0.20;0.10;;;;;;;;;;4872719;29;20091;-88
2023/08/06 08:20:35;;;;;;;0.20;0.10;;;;;;;;;;4907936;28;20046;-86
2023/08/06 08:24:06;;;;;;;0.20;0.20;;;;;;;;;;4868328;29;20494;-87
2023/08/06 08:30:24;;;;;;;;;;;;;;;;;;;;;
2023/08/06 08:33:31;;;;;;;0.20;0.10;;;;;;;;;;4882544;29;20051;-88
2023/08/06 08:35:57;;;;;;;0.20;0.20;;;;;;;;;;4916637;23;20054;-82
2023/08/06 08:38:23;;;;;;;0.20;0.00;;;;;;;;;;4941168;28;20058;-80
2023/08/06 08:40:52;;;;;;;0.20;0.10;;;;;;;;;;4939150;28;20043;-81
2023/08/06 08:43:20;;;;;;;0.40;0.40;;;;;;;;;;4950056;28;20034;-79
2023/08/06 08:45:49;;;;;;;0.32;0.28;;;;;;;;;;4979875;28;20459;-81
2023/08/06 08:48:15;;;;;;;0.20;0.10;;;;;;;;;;4937927;28;20043;-81
2023/08/06 08:50:44;;;;;;;0.20;0.10;;;;;;;;;;4945372;28;20034;-81
2023/08/06 08:53:11;;;;;;;0.20;0.10;;;;;;;;;;4965733;28;20039;-82
2023/08/06 08:55:37;;;;;;;0.20;0.10;;;;;;;;;;4938952;28;20876;-83
2023/08/06 08:58:03;;;;;;;0.73;0.73;;;;;;;;;;4917523;28;20793;-81
2023/08/06 09:00:29;;;;;;;0.20;0.10;;;;;;;;;;4936523;28;20065;-79
2023/08/06 09:02:56;;;;;;;0.20;0.10;;;;;;;;;;4941926;28;20054;-80
2023/08/06 09:05:23;;;;;;;0.35;0.35;;;;;;;;;;4942637;28;20070;-78
2023/08/06 09:07:49;;;;;;;0.25;0.13;;;;;;;;;;4925383;28;20039;-78
2023/08/06 09:10:21;;;;;;;0.20;0.10;;;;;;;;;;4929662;28;20046;-79
2023/08/06 09:12:49;;;;;;;0.20;0.17;;;;;;;;;;4923026;28;20037;-78
2023/08/06 09:15:15;;;;;;;0.20;0.10;;;;;;;;;;4964868;28;20106;-81
2023/08/06 09:17:41;;;;;;;0.20;0.17;;;;;;;;;;4930067;28;20051;-79
2023/08/06 09:20:14;;;;;;;0.20;0.10;;;;;;;;;;4922079;28;20043;-80
2023/08/06 09:22:41;;;;;;;0.20;0.10;;;;;;;;;;4969650;28;20054;-80
2023/08/06 09:25:09;;;;;;;0.20;0.10;;;;;;;;;;4917167;28;21725;-79
2023/08/06 09:27:39;;;;;;;0.20;0.08;;;;;;;;;;4931778;28;20055;-77
2023/08/06 09:30:07;;;;;;;0.20;0.10;;;;;;;;;;4935827;28;20046;-81
2023/08/06 09:32:46;;;;;;;0.22;0.10;;;;;;;;;;4924698;28;20996;-79
2023/08/06 09:35:16;;;;;;;0.20;0.10;;;;;;;;;;4916168;28;20039;-77
2023/08/06 09:37:42;;;;;;;0.20;0.10;;;;;;;;;;4930004;28;20050;-79
2023/08/06 09:40:28;;;;;;;0.20;0.10;;;;;;;;;;4932042;28;20152;-79
2023/08/06 09:42:54;;;;;;;0.20;0.10;;;;;;;;;;4935648;28;20051;-83
2023/08/06 09:45:23;;;;;;;0.55;0.20;;;;;;;;;;4932778;28;22008;-79
2023/08/06 09:47:50;;;;;;;0.20;0.05;;;;;;;;;;4949308;28;20039;-81
2023/08/06 09:50:18;;;;;;;0.20;0.10;;;;;;;;;;4954461;28;20068;-77
2023/08/06 09:52:44;;;;;;;0.20;0.10;;;;;;;;;;4932305;28;20047;-79
2023/08/06 09:55:14;;;;;;;0.20;0.03;;;;;;;;;;4965273;28;20099;-79
2023/08/06 09:57:41;;;;;;;0.20;0.10;;;;;;;;;;4932739;28;20125;-80
2023/08/06 10:00:08;;;;;;;0.20;0.10;;;;;;;;;;4933507;28;20578;-79
2023/08/06 10:02:36;;;;;;;0.30;0.20;;;;;;;;;;4931896;28;20047;-80
2023/08/06 10:05:02;;;;;;;0.20;0.13;;;;;;;;;;4944097;28;20089;-77
2023/08/06 10:07:30;;;;;;;0.35;0.10;;;;;;;;;;4960387;28;20065;-80
2023/08/06 10:09:56;;;;;;;0.20;0.10;;;;;;;;;;4925007;28;20062;-79
2023/08/06 10:12:24;;;;;;;0.30;0.20;;;;;;;;;;4929671;28;20039;-80
2023/08/06 10:14:54;;;;;;;0.40;0.17;;;;;;;;;;4943112;28;20701;-80
2023/08/06 10:17:23;;;;;;;0.20;0.00;;;;;;;;;;4962518;28;20523;-80
2023/08/06 10:19:54;;;;;;;0.20;0.10;;;;;;;;;;4934967;28;20591;-80
2023/08/06 10:22:21;;;;;;;0.20;0.15;;;;;;;;;;4961217;28;20484;-80
2023/08/06 10:24:51;;;;;;;0.38;0.17;;;;;;;;;;4968994;28;20408;-79
2023/08/06 10:27:39;;;;;;;0.30;0.30;;;;;;;;;;4947419;28;20142;-79
2023/08/06 10:30:36;;;;;;;0.20;0.10;;;;;;;;;;4931604;28;20496;-81
2023/08/06 10:33:03;;;;;;;0.20;0.00;;;;;;;;;;4930515;28;20059;-79
2023/08/06 10:35:32;;;;;;;0.20;0.10;;;;;;;;;;4931053;28;20050;-79
2023/08/06 10:37:59;;;;;;;0.20;0.10;;;;;;;;;;4929852;28;20046;-79
2023/08/06 10:40:26;;;;;;;0.20;0.10;;;;;;;;;;4938774;28;20047;-80
2023/08/06 10:42:52;;;;;;;0.20;0.10;;;;;;;;;;4954637;28;20047;-79
2023/08/06 10:45:19;;;;;;;0.20;0.05;;;;;;;;;;4935303;28;20066;-82
2023/08/06 10:47:45;;;;;;;0.25;0.25;;;;;;;;;;4934078;28;20134;-79
2023/08/06 10:50:13;;;;;;;0.20;0.10;;;;;;;;;;4928578;28;20035;-82
2023/08/06 10:52:40;;;;;;;0.20;0.20;;;;;;;;;;4963071;28;20417;-85
2023/08/06 10:55:09;;;;;;;0.20;0.10;;;;;;;;;;4937634;28;20074;-87
2023/08/06 10:57:35;;;;;;;0.20;0.20;;;;;;;;;;4962651;28;20134;-84
2023/08/06 11:00:01;;;;;;;0.20;0.10;;;;;;;;;;4937775;28;20208;-86
2023/08/06 11:02:27;;;;;;;0.20;0.00;;;;;;;;;;4977888;28;20057;-84
2023/08/06 11:04:53;;;;;;;0.20;0.10;;;;;;;;;;4947162;28;20049;-82
2023/08/06 11:07:20;;;;;;;0.20;0.10;;;;;;;;;;4934588;28;20420;-83
2023/08/06 11:09:50;;;;;;;0.20;0.00;;;;;;;;;;4969817;28;21283;-82
2023/08/06 11:12:19;;;;;;;0.20;0.00;;;;;;;;;;4968879;28;20480;-85
2023/08/06 11:14:50;;;;;;;0.20;0.10;;;;;;;;;;4941029;28;20039;-82
2023/08/06 11:17:16;;;;;;;0.20;0.15;;;;;;;;;;4934347;28;20070;-83
2023/08/06 11:19:42;;;;;;;0.20;0.10;;;;;;;;;;4926713;28;20081;-84
2023/08/06 11:22:08;;;;;;;0.20;0.20;;;;;;;;;;4933581;28;20043;-85
2023/08/06 11:24:34;;;;;;;0.20;0.10;;;;;;;;;;4919476;28;20037;-83
2023/08/06 11:27:01;;;;;;;0.20;0.08;;;;;;;;;;4932553;28;20093;-84
2023/08/06 11:29:29;;;;;;;0.20;0.10;;;;;;;;;;4957361;28;22087;-82
2023/08/06 11:32:03;;;;;;;0.20;0.00;;;;;;;;;;4941473;28;20106;-83
2023/08/06 11:34:30;;;;;;;0.20;0.10;;;;;;;;;;4981164;28;20078;-83
2023/08/06 11:37:00;;;;;;;0.20;0.10;;;;;;;;;;4942229;28;20066;-83
2023/08/06 11:39:26;;;;;;;0.20;0.10;;;;;;;;;;4935449;28;20071;-84
2023/08/06 11:41:55;;;;;;;0.20;0.00;;;;;;;;;;4953167;28;20047;-82
2023/08/06 11:44:24;;;;;;;0.20;0.10;;;;;;;;;;4962842;28;20207;-83
2023/08/06 11:46:55;;;;;;;0.20;0.10;;;;;;;;;;4958775;28;20040;-83
2023/08/06 11:49:37;;;;;;;0.20;0.10;;;;;;;;;;4964896;28;20058;-88
2023/08/06 11:52:26;;;;;;;0.20;0.10;;;;;;;;;;4936682;28;20047;-85
2023/08/06 11:55:03;;;;;;;0.20;0.10;;;;;;;;;;4937228;28;20153;-85
2023/08/06 11:57:34;;;;;;;0.30;0.30;;;;;;;;;;4927855;28;20182;-84
2023/08/06 12:00:04;;;;;;;0.20;0.10;;;;;;;;;;4963229;28;20645;-83
2023/08/06 12:02:42;;;;;;;0.20;0.00;;;;;;;;;;4971097;28;20074;-85
2023/08/06 12:05:13;;;;;;;0.20;0.00;;;;;;;;;;4941093;28;20567;-82
2023/08/06 12:07:39;;;;;;;0.20;0.10;;;;;;;;;;4938089;28;20043;-83
2023/08/06 12:10:06;;;;;;;0.20;0.00;;;;;;;;;;4933543;28;20042;-83
2023/08/06 12:12:32;;;;;;;0.20;0.00;;;;;;;;;;4916729;28;20126;-82
2023/08/06 12:14:58;;;;;;;0.20;0.10;;;;;;;;;;4927969;28;20549;-83
2023/08/06 12:17:27;;;;;;;0.20;0.10;;;;;;;;;;4931778;28;20055;-82
2023/08/06 12:19:53;;;;;;;0.20;0.10;;;;;;;;;;4955588;28;20057;-83
2023/08/06 12:22:19;;;;;;;0.20;0.10;;;;;;;;;;4925730;28;20046;-83
2023/08/06 12:24:46;;;;;;;0.20;0.10;;;;;;;;;;4932206;28;20039;-83
2023/08/06 12:27:13;;;;;;;0.20;0.10;;;;;;;;;;4929654;28;20081;-83
2023/08/06 12:29:45;;;;;;;0.43;0.28;;;;;;;;;;4931586;28;20046;-81
2023/08/06 12:32:12;;;;;;;0.20;0.00;;;;;;;;;;4942585;28;20050;-80
2023/08/06 12:34:42;;;;;;;0.20;0.10;;;;;;;;;;4934503;28;20046;-82
2023/08/06 12:37:08;;;;;;;0.20;0.10;;;;;;;;;;4930230;28;20456;-81
2023/08/06 12:39:35;;;;;;;0.20;0.13;;;;;;;;;;4930156;28;20057;-84
2023/08/06 12:42:01;;;;;;;0.20;0.10;;;;;;;;;;4923265;28;20050;-82
2023/08/06 12:44:27;;;;;;;0.20;0.10;;;;;;;;;;4935584;28;20066;-82
2023/08/06 12:46:54;;;;;;;0.20;0.10;;;;;;;;;;4933335;28;20078;-83
2023/08/06 12:49:24;;;;;;;0.20;0.10;;;;;;;;;;4946498;28;20073;-84
2023/08/06 12:51:51;;;;;;;0.20;0.10;;;;;;;;;;4933597;28;20057;-81
2023/08/06 12:54:18;;;;;;;0.20;0.10;;;;;;;;;;4929939;28;20162;-84
2023/08/06 12:56:44;;;;;;;0.30;0.17;;;;;;;;;;4968598;28;20034;-85
2023/08/06 12:59:10;;;;;;;0.20;0.05;;;;;;;;;;4929907;28;20546;-84
2023/08/06 13:01:37;;;;;;;0.20;0.10;;;;;;;;;;4964587;28;20230;-82
2023/08/06 13:04:03;;;;;;;0.20;0.10;;;;;;;;;;4965388;28;20081;-83
2023/08/06 13:06:30;;;;;;;0.20;0.10;;;;;;;;;;4941907;28;20098;-83
2023/08/06 13:08:57;;;;;;;0.20;0.05;;;;;;;;;;4945891;28;20039;-82
2023/08/06 13:11:23;;;;;;;0.20;0.05;;;;;;;;;;4945763;28;20034;-82
2023/08/06 13:13:49;;;;;;;0.70;0.17;;;;;;;;;;4956649;28;20516;-81
2023/08/06 13:16:15;;;;;;;0.20;0.10;;;;;;;;;;4946090;28;20039;-83
2023/08/06 13:18:41;;;;;;;0.20;0.10;;;;;;;;;;4929555;28;20518;-82
2023/08/06 13:21:08;;;;;;;0.20;0.10;;;;;;;;;;4941947;28;20050;-82
2023/08/06 13:23:34;;;;;;;0.20;0.10;;;;;;;;;;4978506;28;20047;-83
2023/08/06 13:26:00;;;;;;;0.20;0.10;;;;;;;;;;4938386;28;20049;-82
2023/08/06 13:28:26;;;;;;;0.20;0.20;;;;;;;;;;4960967;28;20065;-83
2023/08/06 13:30:52;;;;;;;0.20;0.00;;;;;;;;;;4939721;28;20062;-84
2023/08/06 13:33:18;;;;;;;0.20;0.10;;;;;;;;;;4944031;28;21133;-83
2023/08/06 13:35:44;;;;;;;0.20;0.10;;;;;;;;;;4950468;28;20067;-82
2023/08/06 13:38:10;;;;;;;0.20;0.10;;;;;;;;;;4954318;28;20423;-84
2023/08/06 13:40:44;;;;;;;0.20;0.10;;;;;;;;;;4951389;28;20046;-83
2023/08/06 13:43:10;;;;;;;0.20;0.10;;;;;;;;;;4945521;28;20054;-83
2023/08/06 13:45:37;;;;;;;0.20;0.10;;;;;;;;;;4949643;28;20051;-82
2023/08/06 13:48:04;;;;;;;0.30;0.10;;;;;;;;;;4958322;28;20066;-82
2023/08/06 13:50:30;;;;;;;0.20;0.10;;;;;;;;;;4964973;28;20042;-82
2023/08/06 13:52:56;;;;;;;0.20;0.10;;;;;;;;;;4950559;28;20409;-81
2023/08/06 13:55:22;;;;;;;0.20;0.10;;;;;;;;;;4944935;28;20050;-81
2023/08/06 13:57:49;;;;;;;0.73;0.40;;;;;;;;;;4966775;28;20038;-84
2023/08/06 14:00:15;;;;;;;0.20;0.10;;;;;;;;;;4954433;28;20074;-81
2023/08/06 14:02:43;;;;;;;0.40;0.30;;;;;;;;;;4950895;28;20525;-82
2023/08/06 14:05:09;;;;;;;0.20;0.00;;;;;;;;;;4952596;28;20039;-82
2023/08/06 14:07:35;;;;;;;0.30;0.13;;;;;;;;;;4978434;28;20747;-83
2023/08/06 14:10:01;;;;;;;0.20;0.10;;;;;;;;;;4938880;28;20133;-81
2023/08/06 14:12:28;;;;;;;0.20;0.10;;;;;;;;;;4950018;28;20050;-81
2023/08/06 14:14:54;;;;;;;0.20;0.10;;;;;;;;;;4950832;28;20051;-82
2023/08/06 14:17:20;;;;;;;0.20;0.00;;;;;;;;;;4971646;28;20046;-82
2023/08/06 14:19:46;;;;;;;0.28;0.17;;;;;;;;;;4940022;28;20043;-78
2023/08/06 14:22:12;;;;;;;0.20;0.10;;;;;;;;;;4931763;28;20126;-85
2023/08/06 14:24:38;;;;;;;0.22;0.20;;;;;;;;;;4934130;28;20366;-81
2023/08/06 14:27:05;;;;;;;0.20;0.10;;;;;;;;;;4948388;28;20039;-84
2023/08/06 14:29:32;;;;;;;0.20;0.10;;;;;;;;;;4965490;28;20043;-80
2023/08/06 14:31:58;;;;;;;0.20;0.10;;;;;;;;;;4975704;28;20048;-81
2023/08/06 14:34:24;;;;;;;0.20;0.10;;;;;;;;;;4944742;28;21025;-81
2023/08/06 14:37:19;;;;;;;0.20;0.10;;;;;;;;;;5009705;22;20045;-86
2023/08/06 14:40:14;;;;;;;0.20;0.10;;;;;;;;;;4978033;28;20152;-83
2023/08/06 14:43:02;;;;;;;0.20;0.10;;;;;;;;;;5012570;28;20057;-85
2023/08/06 14:46:17;;;;;;;0.20;0.10;;;;;;;;;;4992481;28;20127;-86
2023/08/06 14:48:59;;;;;;;0.20;0.13;;;;;;;;;;4983392;28;20419;-85
2023/08/06 14:51:30;;;;;;;0.25;0.10;;;;;;;;;;4996117;28;20069;-83
2023/08/06 14:54:02;;;;;;;0.20;0.10;;;;;;;;;;4990874;28;20069;-85
2023/08/06 14:56:36;;;;;;;0.30;0.10;;;;;;;;;;4990757;28;20070;-84
2023/08/06 14:59:17;;;;;;;0.20;0.10;;;;;;;;;;4965310;28;20097;-84
2023/08/06 15:06:03;;;;;;;;;;;;;;;;;;;;;
2023/08/06 15:08:46;;;;;;;0.20;0.10;;;;;;;;;;4975687;28;20688;-86
2023/08/06 15:11:38;;;;;;;0.20;0.10;;;;;;;;;;4992739;28;20176;-83
2023/08/06 15:14:16;;;;;;;0.55;0.50;;;;;;;;;;5010067;28;20104;-85
2023/08/06 15:16:57;;;;;;;0.35;0.30;;;;;;;;;;5022507;22;20133;-87
2023/08/06 15:19:26;;;;;;;0.20;0.10;;;;;;;;;;4964670;28;20052;-84
2023/08/06 15:22:14;;;;;;;;;;;;;;;;;;;;;
2023/08/06 15:24:49;;;;;;;0.68;0.68;;;;;;;;;;4968482;28;20066;-84
2023/08/06 15:27:19;;;;;;;0.30;0.30;;;;;;;;;;4977674;28;20491;-86
2023/08/06 15:29:45;;;;;;;2.75;0.88;;;;;;;;;;4970010;28;20039;-78
2023/08/06 15:32:13;;;;;;;0.22;0.22;;;;;;;;;;4954376;28;20077;-83
2023/08/06 15:34:40;;;;;;;0.57;0.55;;;;;;;;;;4956995;28;20047;-82
2023/08/06 15:37:12;;;;;;;0.20;0.10;;;;;;;;;;4948605;28;20566;-84
2023/08/06 15:39:59;;;;;;;0.20;0.20;;;;;;;;;;4961881;28;20046;-84
2023/08/06 15:42:46;;;;;;;0.35;0.25;;;;;;;;;;4955940;28;20146;-84
2023/08/06 15:45:27;;;;;;;0.20;0.10;;;;;;;;;;4957057;28;20037;-83
2023/08/06 15:47:53;;;;;;;1.00;0.88;;;;;;;;;;4949586;28;20398;-86
2023/08/06 15:50:21;;;;;;;0.20;0.17;;;;;;;;;;4952524;28;20043;-85
2023/08/06 15:53:17;;;;;;;;;;;;;;;;;;;;;
2023/08/06 15:55:43;;;;;;;0.43;0.43;;;;;;;;;;4970253;28;20515;-84
2023/08/06 15:58:09;;;;;;;0.30;0.25;;;;;;;;;;4959347;28;20422;-83
2023/08/06 16:00:54;;;;;;;0.90;0.55;;;;;;;;;;4962021;28;20064;-87
2023/08/06 16:03:22;;;;;;;0.25;0.22;;;;;;;;;;4961281;28;20054;-84
2023/08/06 16:06:03;;;;;;;0.38;0.28;;;;;;;;;;4963161;28;20051;-84
2023/08/06 16:08:57;;;;;;;0.43;0.43;;;;;;;;;;4978994;28;20038;-85
2023/08/06 16:11:29;;;;;;;0.20;0.10;;;;;;;;;;4957765;28;20038;-83
2023/08/06 16:14:04;;;;;;;0.20;0.10;;;;;;;;;;4964382;28;20490;-85
2023/08/06 16:16:42;;;;;;;0.20;0.10;;;;;;;;;;4962408;28;20046;-86
2023/08/06 16:19:11;;;;;;;0.20;0.10;;;;;;;;;;4950954;28;20173;-83